createdAt,value
2018-03-15T00:01:58.864Z,2.80
2018-03-15T00:04:32.030Z,2.80
2018-03-15T00:06:59.651Z,2.80
2018-03-15T00:09:27.580Z,2.70
2018-03-15T00:11:55.222Z,2.70
2018-03-15T00:14:22.867Z,2.70
2018-03-15T00:16:50.555Z,2.70
2018-03-15T00:19:18.177Z,2.70
2018-03-15T00:21:46.606Z,2.70
2018-03-15T00:24:14.366Z,2.60
2018-03-15T00:26:42.009Z,2.60
2018-03-15T00:29:09.658Z,2.60
2018-03-15T00:31:38.046Z,2.60
2018-03-15T00:34:06.469Z,2.60
2018-03-15T00:36:34.093Z,2.50
2018-03-15T00:39:02.491Z,2.50
2018-03-15T00:41:30.087Z,2.50
2018-03-15T00:43:57.776Z,2.50
2018-03-15T00:46:25.385Z,2.40
2018-03-15T00:48:53.793Z,2.40
2018-03-15T00:51:21.452Z,2.40
2018-03-15T00:53:49.127Z,2.30
2018-03-15T00:56:16.786Z,2.30
2018-03-15T00:58:45.271Z,2.20
2018-03-15T01:01:13.027Z,2.20
2018-03-15T01:03:41.422Z,2.10
2018-03-15T01:06:09.340Z,2.10
2018-03-15T01:08:36.987Z,2.00
2018-03-15T01:11:04.633Z,2.00
2018-03-15T01:13:32.258Z,2.00
2018-03-15T01:16:00.732Z,2.00
2018-03-15T01:18:28.449Z,2.00
2018-03-15T01:20:56.090Z,2.00
2018-03-15T01:23:23.743Z,2.00
2018-03-15T01:25:51.387Z,2.00
2018-03-15T01:28:19.020Z,2.10
2018-03-15T01:30:46.655Z,2.10
2018-03-15T01:33:15.128Z,2.10
2018-03-15T01:35:42.795Z,2.10
2018-03-15T01:38:10.586Z,2.10
2018-03-15T01:40:38.268Z,2.10
2018-03-15T01:43:05.886Z,2.00
2018-03-15T01:45:33.498Z,2.00
2018-03-15T01:48:01.161Z,1.90
2018-03-15T01:50:28.796Z,1.90
2018-03-15T01:52:56.538Z,1.80
2018-03-15T01:55:24.152Z,1.80
2018-03-15T01:57:52.560Z,1.90
2018-03-15T02:00:20.253Z,1.90
2018-03-15T02:02:48.646Z,1.90
2018-03-15T02:05:16.274Z,1.80
2018-03-15T02:07:43.888Z,1.90
2018-03-15T02:10:11.836Z,1.80
2018-03-15T02:12:39.511Z,1.80
2018-03-15T02:15:07.140Z,1.80
2018-03-15T02:17:34.768Z,1.80
2018-03-15T02:20:04.606Z,1.80
2018-03-15T02:22:33.005Z,1.80
2018-03-15T02:25:00.743Z,1.70
2018-03-15T02:27:29.178Z,1.80
2018-03-15T02:29:56.791Z,1.80
2018-03-15T02:32:24.567Z,1.80
2018-03-15T02:34:52.993Z,1.80
2018-03-15T02:37:20.617Z,1.80
2018-03-15T02:39:49.034Z,1.80
2018-03-15T02:42:16.659Z,1.80
2018-03-15T02:44:44.293Z,1.80
2018-03-15T02:47:11.987Z,1.80
2018-03-15T02:49:40.419Z,1.80
2018-03-15T02:52:08.060Z,1.70
2018-03-15T02:54:36.457Z,1.70
2018-03-15T02:57:04.127Z,1.70
2018-03-15T02:59:31.798Z,1.70
2018-03-15T03:01:59.573Z,1.60
2018-03-15T03:04:27.204Z,1.60
2018-03-15T03:06:55.581Z,1.60
2018-03-15T03:09:23.204Z,1.60
2018-03-15T03:11:50.820Z,1.60
2018-03-15T03:14:19.229Z,1.60
2018-03-15T03:16:46.855Z,1.60
2018-03-15T03:19:14.503Z,1.60
2018-03-15T03:21:42.151Z,1.60
2018-03-15T03:24:10.031Z,1.60
2018-03-15T03:26:37.663Z,1.60
2018-03-15T03:29:05.282Z,1.60
2018-03-15T03:31:32.920Z,1.60
2018-03-15T03:34:00.522Z,1.60
2018-03-15T03:36:28.463Z,1.60
2018-03-15T03:38:56.086Z,1.50
2018-03-15T03:41:24.465Z,1.50
2018-03-15T03:43:52.839Z,1.50
2018-03-15T03:46:21.271Z,1.50
2018-03-15T03:48:49.830Z,1.50
2018-03-15T03:51:17.448Z,1.50
2018-03-15T03:53:45.068Z,1.50
2018-03-15T03:56:12.669Z,1.50
2018-03-15T03:58:40.342Z,1.40
2018-03-15T04:01:07.950Z,1.40
2018-03-15T04:03:36.388Z,1.30
2018-03-15T04:06:04.023Z,1.30
2018-03-15T04:08:31.658Z,1.30
2018-03-15T04:11:00.052Z,1.30
2018-03-15T04:13:28.478Z,1.30
2018-03-15T04:15:56.146Z,1.30
2018-03-15T04:18:23.737Z,1.30
2018-03-15T04:20:51.718Z,1.30
2018-03-15T04:23:20.215Z,1.40
2018-03-15T04:25:48.638Z,1.30
2018-03-15T04:28:16.331Z,1.30
2018-03-15T04:30:43.941Z,1.30
2018-03-15T04:33:12.345Z,1.30
2018-03-15T04:35:39.963Z,1.30
2018-03-15T04:38:07.633Z,1.30
2018-03-15T04:40:35.243Z,1.30
2018-03-15T04:43:03.018Z,1.30
2018-03-15T04:45:30.605Z,1.40
2018-03-15T04:47:58.255Z,1.30
2018-03-15T04:50:25.903Z,1.20
2018-03-15T04:52:53.531Z,1.20
2018-03-15T04:55:21.247Z,1.10
2018-03-15T04:57:48.883Z,1.20
2018-03-15T05:00:17.295Z,1.20
2018-03-15T05:02:45.169Z,1.20
2018-03-15T05:05:12.784Z,1.20
2018-03-15T05:07:40.419Z,1.20
2018-03-15T05:10:08.039Z,1.20
2018-03-15T05:12:36.475Z,1.20
2018-03-15T05:15:04.808Z,1.20
2018-03-15T05:17:33.224Z,1.20
2018-03-15T05:20:00.895Z,1.20
2018-03-15T05:22:28.514Z,1.20
2018-03-15T05:24:56.942Z,1.10
2018-03-15T05:27:24.704Z,1.20
2018-03-15T05:29:52.339Z,1.10
2018-03-15T05:32:20.704Z,1.10
2018-03-15T05:34:48.330Z,1.10
2018-03-15T05:37:15.969Z,1.10
2018-03-15T05:39:43.654Z,1.10
2018-03-15T05:42:11.424Z,1.20
2018-03-15T05:44:39.102Z,1.30
2018-03-15T05:47:07.542Z,1.40
2018-03-15T05:49:35.968Z,1.40
2018-03-15T05:52:03.613Z,1.40
2018-03-15T05:54:31.228Z,1.50
2018-03-15T05:56:58.960Z,1.60
2018-03-15T05:59:26.583Z,1.80
2018-03-15T06:01:54.216Z,1.90
2018-03-15T06:04:21.858Z,2.00
2018-03-15T06:06:49.488Z,2.10
2018-03-15T06:09:17.878Z,2.20
2018-03-15T06:11:46.239Z,2.30
2018-03-15T06:14:14.170Z,2.20
2018-03-15T06:16:41.823Z,2.30
2018-03-15T06:19:09.447Z,2.30
2018-03-15T06:21:37.070Z,2.40
2018-03-15T06:24:04.755Z,2.60
2018-03-15T06:26:32.496Z,2.80
2018-03-15T06:29:00.115Z,3.00
2018-03-15T06:31:29.231Z,3.30
2018-03-15T06:33:57.654Z,3.60
2018-03-15T06:36:25.313Z,3.50
2018-03-15T06:38:53.111Z,3.70
2018-03-15T06:41:20.753Z,3.80
2018-03-15T06:43:48.412Z,3.90
2018-03-15T06:46:16.023Z,4.10
2018-03-15T06:48:43.627Z,4.30
2018-03-15T06:51:12.015Z,4.60
2018-03-15T06:53:40.552Z,4.80
2018-03-15T06:56:08.193Z,4.70
2018-03-15T06:58:35.819Z,4.90
2018-03-15T07:01:04.186Z,5.10
2018-03-15T07:03:31.812Z,5.10
2018-03-15T07:06:00.194Z,5.30
2018-03-15T07:08:27.802Z,5.30
2018-03-15T07:10:55.442Z,5.50
2018-03-15T07:13:23.914Z,5.60
2018-03-15T07:15:51.529Z,5.60
2018-03-15T07:18:20.064Z,5.80
2018-03-15T07:20:47.676Z,5.70
2018-03-15T07:23:15.329Z,5.80
2018-03-15T07:25:42.967Z,5.90
2018-03-15T07:28:10.564Z,5.80
2018-03-15T07:30:38.976Z,5.70
2018-03-15T07:33:07.346Z,5.80
2018-03-15T07:35:35.857Z,5.80
2018-03-15T07:38:03.536Z,5.80
2018-03-15T07:40:31.142Z,6.00
2018-03-15T07:42:58.838Z,6.10
2018-03-15T07:45:27.210Z,6.30
2018-03-15T07:47:54.841Z,6.30
2018-03-15T07:50:22.483Z,6.50
2018-03-15T07:52:50.146Z,6.60
2018-03-15T07:55:17.954Z,6.70
2018-03-15T07:57:45.569Z,6.80
2018-03-15T08:00:14.127Z,6.70
2018-03-15T08:02:41.747Z,6.70
2018-03-15T08:05:09.423Z,6.70
2018-03-15T08:07:37.082Z,6.60
2018-03-15T08:10:04.752Z,6.50
2018-03-15T08:12:32.578Z,6.60
2018-03-15T08:15:00.959Z,6.40
2018-03-15T08:17:28.636Z,6.40
2018-03-15T08:19:57.048Z,6.90
2018-03-15T08:22:24.753Z,6.90
2018-03-15T08:24:52.349Z,7.20
2018-03-15T08:27:20.737Z,7.20
2018-03-15T08:29:49.241Z,7.30
2018-03-15T08:32:16.852Z,7.30
2018-03-15T08:34:44.486Z,7.40
2018-03-15T08:37:12.121Z,7.60
2018-03-15T08:39:40.707Z,8.10
2018-03-15T08:42:08.267Z,8.10
2018-03-15T08:44:35.882Z,7.90
2018-03-15T08:47:03.529Z,7.90
2018-03-15T08:49:31.237Z,7.80
2018-03-15T08:51:58.913Z,7.60
2018-03-15T08:54:28.605Z,7.30
2018-03-15T08:56:56.287Z,7.20
2018-03-15T08:59:23.886Z,7.30
2018-03-15T09:01:52.263Z,7.70
2018-03-15T09:04:20.716Z,7.90
2018-03-15T09:06:48.291Z,7.80
2018-03-15T09:09:15.896Z,8.00
2018-03-15T09:11:43.523Z,8.20
2018-03-15T09:14:11.470Z,8.20
2018-03-15T09:16:39.092Z,8.30
2018-03-15T09:19:07.466Z,8.30
2018-03-15T09:21:35.905Z,8.30
2018-03-15T09:24:03.509Z,8.30
2018-03-15T09:26:31.265Z,8.30
2018-03-15T09:28:58.897Z,8.30
2018-03-15T09:31:26.552Z,8.10
2018-03-15T09:33:54.195Z,7.90
2018-03-15T09:36:25.747Z,7.80
2018-03-15T09:38:53.374Z,7.80
2018-03-15T09:41:21.002Z,7.90
2018-03-15T09:43:48.667Z,8.00
2018-03-15T09:46:16.388Z,8.30
2018-03-15T09:48:43.961Z,8.60
2018-03-15T09:51:12.380Z,9.10
2018-03-15T09:53:40.025Z,9.10
2018-03-15T09:56:08.433Z,9.30
2018-03-15T09:58:36.052Z,9.30
2018-03-15T10:01:04.439Z,9.70
2018-03-15T10:03:32.889Z,9.90
2018-03-15T10:06:00.513Z,9.90
2018-03-15T10:08:28.155Z,9.90
2018-03-15T10:10:55.815Z,9.70
2018-03-15T10:13:23.427Z,9.80
2018-03-15T10:15:51.061Z,10.10
2018-03-15T10:18:19.589Z,9.90
2018-03-15T10:20:47.252Z,9.90
2018-03-15T10:23:14.884Z,9.90
2018-03-15T10:25:42.563Z,10.00
2018-03-15T10:28:10.201Z,10.30
2018-03-15T10:30:37.911Z,10.40
2018-03-15T10:33:11.226Z,10.60
2018-03-15T10:35:38.863Z,10.90
2018-03-15T10:38:06.519Z,10.90
2018-03-15T10:40:34.162Z,11.10
2018-03-15T10:43:01.887Z,11.10
2018-03-15T10:45:29.590Z,11.20
2018-03-15T10:47:57.226Z,11.40
2018-03-15T10:50:24.876Z,11.50
2018-03-15T10:52:52.508Z,11.60
2018-03-15T10:55:20.976Z,11.40
2018-03-15T10:57:48.711Z,11.40
2018-03-15T11:00:16.326Z,11.10
2018-03-15T11:02:47.471Z,11.00
2018-03-15T11:05:21.532Z,11.20
2018-03-15T11:07:54.650Z,11.10
2018-03-15T11:10:22.268Z,11.00
2018-03-15T11:12:50.047Z,10.90
2018-03-15T11:15:18.915Z,11.00
2018-03-15T11:17:47.342Z,11.20
2018-03-15T11:20:15.002Z,11.20
2018-03-15T11:22:42.672Z,11.40
2018-03-15T11:25:10.312Z,11.50
2018-03-15T11:27:37.918Z,11.50
2018-03-15T11:30:05.584Z,11.60
2018-03-15T11:32:33.216Z,12.00
2018-03-15T11:35:00.841Z,12.20
2018-03-15T11:37:28.526Z,12.20
2018-03-15T11:39:56.899Z,12.40
2018-03-15T11:42:24.551Z,12.40
2018-03-15T11:44:52.185Z,12.50
2018-03-15T11:47:19.810Z,12.50
2018-03-15T11:49:48.266Z,13.10
2018-03-15T11:52:15.905Z,13.10
2018-03-15T11:54:43.579Z,13.30
2018-03-15T11:57:11.277Z,13.40
2018-03-15T11:59:39.022Z,13.20
2018-03-15T12:02:06.640Z,13.00
2018-03-15T12:04:34.262Z,13.10
2018-03-15T12:07:01.981Z,12.90
2018-03-15T12:09:29.624Z,13.20
2018-03-15T12:11:57.366Z,13.50
2018-03-15T12:14:25.048Z,13.50
2018-03-15T12:16:52.730Z,13.30
2018-03-15T12:19:20.349Z,13.20
2018-03-15T12:21:48.045Z,13.10
2018-03-15T12:24:15.674Z,13.20
2018-03-15T12:26:43.284Z,13.30
2018-03-15T12:29:10.921Z,13.60
2018-03-15T12:31:38.604Z,13.80
2018-03-15T12:34:06.325Z,13.90
2018-03-15T12:36:33.956Z,14.10
2018-03-15T12:39:01.779Z,14.10
2018-03-15T12:41:29.408Z,13.90
2018-03-15T12:43:57.018Z,13.80
2018-03-15T12:46:24.676Z,13.50
2018-03-15T12:48:52.298Z,13.40
2018-03-15T12:51:19.929Z,13.50
2018-03-15T12:53:47.572Z,13.30
2018-03-15T12:56:15.240Z,13.10
2018-03-15T12:58:42.884Z,13.10
2018-03-15T13:01:10.678Z,13.20
2018-03-15T13:03:42.961Z,13.30
2018-03-15T13:06:10.619Z,13.40
2018-03-15T13:08:38.259Z,13.60
2018-03-15T13:11:06.634Z,13.60
2018-03-15T13:13:35.383Z,13.50
2018-03-15T13:16:02.986Z,13.50
2018-03-15T13:18:30.622Z,13.40
2018-03-15T13:20:58.294Z,13.30
2018-03-15T13:23:25.900Z,13.20
2018-03-15T13:25:54.329Z,12.70
2018-03-15T13:28:21.968Z,12.70
2018-03-15T13:30:50.375Z,12.40
2018-03-15T13:33:17.993Z,12.30
2018-03-15T13:35:46.371Z,11.90
2018-03-15T13:38:14.793Z,11.70
2018-03-15T13:40:42.402Z,11.70
2018-03-15T13:43:10.049Z,11.70
2018-03-15T13:45:37.667Z,11.70
2018-03-15T13:48:05.282Z,11.60
2018-03-15T13:50:32.923Z,11.40
2018-03-15T13:53:00.562Z,11.30
2018-03-15T13:55:28.962Z,11.40
2018-03-15T13:57:56.571Z,11.40
2018-03-15T14:00:24.237Z,11.20
2018-03-15T14:02:51.862Z,11.10
2018-03-15T14:05:19.518Z,11.00
2018-03-15T14:07:47.193Z,10.90
2018-03-15T14:10:14.946Z,10.80
2018-03-15T14:12:43.486Z,10.70
2018-03-15T14:15:11.100Z,10.60
2018-03-15T14:17:39.598Z,10.60
2018-03-15T14:20:07.415Z,10.60
2018-03-15T14:22:35.057Z,10.60
2018-03-15T14:25:02.846Z,10.70
2018-03-15T14:27:34.488Z,10.70
2018-03-15T14:30:02.876Z,10.60
2018-03-15T14:32:30.567Z,10.60
2018-03-15T14:34:59.148Z,10.50
2018-03-15T14:37:26.776Z,10.40
2018-03-15T14:39:54.686Z,10.40
2018-03-15T14:42:22.417Z,10.30
2018-03-15T14:44:50.141Z,10.20
2018-03-15T14:47:17.804Z,10.20
2018-03-15T14:49:46.437Z,10.10
2018-03-15T14:52:14.195Z,10.10
2018-03-15T14:54:41.840Z,10.10
2018-03-15T14:57:10.280Z,10.00
2018-03-15T14:59:37.963Z,10.00
2018-03-15T15:02:05.567Z,9.90
2018-03-15T15:04:33.296Z,9.90
2018-03-15T15:07:00.981Z,9.90
2018-03-15T15:09:29.456Z,9.80
2018-03-15T15:11:57.187Z,9.80
2018-03-15T15:14:24.928Z,9.80
2018-03-15T15:16:53.709Z,9.80
2018-03-15T15:19:22.157Z,9.70
2018-03-15T15:21:50.033Z,9.70
2018-03-15T15:24:17.962Z,9.60
2018-03-15T15:26:45.623Z,9.60
2018-03-15T15:29:14.076Z,9.50
2018-03-15T15:31:41.737Z,9.50
2018-03-15T15:34:09.451Z,9.60
2018-03-15T15:36:37.104Z,9.60
2018-03-15T15:39:05.464Z,9.50
2018-03-15T15:41:33.090Z,9.50
2018-03-15T15:44:00.802Z,9.50
2018-03-15T15:46:28.448Z,9.50
2018-03-15T15:48:56.115Z,9.50
2018-03-15T15:51:23.725Z,9.50
2018-03-15T15:53:52.143Z,9.40
2018-03-15T15:56:19.761Z,9.40
2018-03-15T15:58:48.187Z,9.40
2018-03-15T16:01:15.909Z,9.40
2018-03-15T16:03:44.290Z,9.70
2018-03-15T16:06:12.821Z,9.60
2018-03-15T16:08:40.440Z,9.60
2018-03-15T16:11:12.460Z,9.50
2018-03-15T16:13:40.077Z,9.40
2018-03-15T16:16:08.484Z,9.30
2018-03-15T16:18:36.902Z,9.20
2018-03-15T16:21:04.541Z,9.20
2018-03-15T16:23:32.311Z,9.10
2018-03-15T16:25:59.950Z,9.10
2018-03-15T16:28:27.648Z,9.10
2018-03-15T16:30:55.298Z,9.10
2018-03-15T16:33:23.013Z,9.00
2018-03-15T16:35:50.853Z,9.00
2018-03-15T16:38:18.532Z,9.00
2018-03-15T16:40:46.185Z,8.90
2018-03-15T16:43:13.864Z,8.90
2018-03-15T16:45:41.603Z,8.80
2018-03-15T16:48:09.406Z,8.70
2018-03-15T16:50:37.043Z,8.70
2018-03-15T16:53:05.462Z,8.70
2018-03-15T16:55:33.131Z,8.70
2018-03-15T16:58:01.773Z,8.80
2018-03-15T17:00:30.161Z,8.90
2018-03-15T17:02:58.554Z,8.90
2018-03-15T17:05:26.202Z,8.90
2018-03-15T17:07:54.583Z,8.80
2018-03-15T17:10:23.062Z,8.70
2018-03-15T17:12:51.510Z,8.70
2018-03-15T17:15:19.941Z,8.60
2018-03-15T17:17:48.372Z,8.60
2018-03-15T17:20:16.014Z,8.60
2018-03-15T17:22:43.821Z,8.60
2018-03-15T17:25:11.508Z,8.60
2018-03-15T17:27:39.220Z,8.50
2018-03-15T17:30:06.996Z,8.80
2018-03-15T17:32:34.824Z,8.90
2018-03-15T17:35:02.445Z,8.80
2018-03-15T17:37:30.104Z,8.70
2018-03-15T17:39:57.768Z,8.60
2018-03-15T17:42:25.434Z,8.50
2018-03-15T17:44:53.165Z,8.50
2018-03-15T17:47:21.590Z,8.40
2018-03-15T17:49:49.560Z,8.40
2018-03-15T17:52:17.275Z,8.40
2018-03-15T17:54:45.782Z,8.40
2018-03-15T17:57:14.229Z,8.40
2018-03-15T17:59:41.934Z,8.30
2018-03-15T18:02:10.409Z,8.30
2018-03-15T18:04:38.992Z,8.30
2018-03-15T18:07:06.674Z,8.30
2018-03-15T18:09:35.295Z,8.20
2018-03-15T18:12:02.972Z,8.20
2018-03-15T18:14:30.645Z,8.20
2018-03-15T18:16:58.391Z,8.20
2018-03-15T18:19:26.196Z,8.10
2018-03-15T18:21:53.916Z,8.10
2018-03-15T18:24:21.676Z,8.10
2018-03-15T18:26:50.195Z,8.10
2018-03-15T18:29:17.948Z,8.00
2018-03-15T18:31:46.659Z,8.00
2018-03-15T18:34:14.367Z,8.00
2018-03-15T18:36:42.149Z,7.90
2018-03-15T18:39:10.707Z,7.90
2018-03-15T18:41:38.948Z,7.80
2018-03-15T18:44:07.263Z,7.80
2018-03-15T18:46:35.104Z,7.80
2018-03-15T18:49:02.815Z,7.80
2018-03-15T18:51:30.571Z,7.80
2018-03-15T18:53:58.520Z,7.80
2018-03-15T18:56:26.498Z,7.80
2018-03-15T18:58:54.235Z,7.80
2018-03-15T19:01:22.111Z,7.80
2018-03-15T19:03:50.830Z,7.80
2018-03-15T19:06:18.551Z,7.80
2018-03-15T19:08:47.056Z,7.70
2018-03-15T19:11:15.048Z,7.70
2018-03-15T19:13:42.865Z,7.70
2018-03-15T19:16:11.533Z,7.60
2018-03-15T19:18:39.371Z,7.60
2018-03-15T19:21:07.097Z,7.60
2018-03-15T19:23:34.855Z,7.60
2018-03-15T19:26:03.628Z,7.60
2018-03-15T19:28:31.512Z,7.50
2018-03-15T19:30:59.312Z,7.50
2018-03-15T19:33:27.088Z,7.50
2018-03-15T19:35:56.992Z,7.40
2018-03-15T19:38:24.850Z,7.40
2018-03-15T19:40:53.221Z,7.40
2018-03-15T19:43:20.966Z,7.50
2018-03-15T19:45:49.123Z,7.50
2018-03-15T19:48:17.424Z,7.40
2018-03-15T19:50:45.204Z,7.40
2018-03-15T19:53:13.408Z,7.50
2018-03-15T19:55:41.141Z,7.50
2018-03-15T19:58:09.050Z,7.50
2018-03-15T20:00:38.523Z,7.50
2018-03-15T20:03:06.678Z,7.50
2018-03-15T20:05:35.200Z,7.50
2018-03-15T20:08:02.975Z,7.40
2018-03-15T20:10:30.757Z,7.50
2018-03-15T20:12:59.218Z,7.50
2018-03-15T20:15:27.022Z,7.50
2018-03-15T20:17:54.976Z,7.50
2018-03-15T20:20:23.444Z,7.50
2018-03-15T20:22:56.938Z,7.50
2018-03-15T20:25:25.028Z,7.50
2018-03-15T20:28:09.772Z,7.50
2018-03-15T20:30:37.858Z,7.40
2018-03-15T20:33:11.326Z,7.40
2018-03-15T20:35:39.790Z,7.40
2018-03-15T20:38:08.338Z,7.40
2018-03-15T20:40:41.821Z,7.30
2018-03-15T20:43:10.428Z,7.30
2018-03-15T20:45:43.774Z,7.30
2018-03-15T20:48:17.113Z,7.30
2018-03-15T20:50:45.298Z,7.30
2018-03-15T20:53:13.086Z,7.30
2018-03-15T20:55:41.786Z,7.30
2018-03-15T20:58:09.666Z,7.30
2018-03-15T21:00:38.278Z,7.20
2018-03-15T21:03:07.445Z,7.20
2018-03-15T21:05:36.651Z,7.20
2018-03-15T21:08:05.143Z,7.20
2018-03-15T21:10:33.262Z,7.20
2018-03-15T21:13:00.968Z,7.20
2018-03-15T21:15:28.705Z,7.20
2018-03-15T21:17:56.607Z,7.20
2018-03-15T21:20:24.405Z,7.20
2018-03-15T21:22:53.022Z,7.10
2018-03-15T21:25:20.901Z,7.10
2018-03-15T21:27:48.682Z,7.10
2018-03-15T21:30:16.392Z,7.10
2018-03-15T21:32:44.110Z,7.00
2018-03-15T21:35:11.826Z,7.00
2018-03-15T21:37:42.344Z,7.00
2018-03-15T21:40:10.076Z,7.00
2018-03-15T21:42:38.591Z,7.00
2018-03-15T21:45:06.300Z,7.00
2018-03-15T21:47:34.782Z,7.00
2018-03-15T21:50:03.244Z,7.00
2018-03-15T21:52:31.071Z,6.90
2018-03-15T21:54:58.801Z,7.00
2018-03-15T21:57:26.443Z,7.00
2018-03-15T21:59:54.275Z,6.90
2018-03-15T22:02:22.152Z,6.80
2018-03-15T22:04:49.837Z,6.80
2018-03-15T22:07:17.526Z,6.80
2018-03-15T22:09:46.853Z,6.80
2018-03-15T22:12:15.375Z,6.80
2018-03-15T22:14:43.041Z,6.80
2018-03-15T22:17:10.707Z,6.80
2018-03-15T22:19:38.365Z,6.90
2018-03-15T22:22:06.044Z,6.90
2018-03-15T22:24:33.679Z,6.90
2018-03-15T22:27:02.152Z,6.80
2018-03-15T22:29:29.790Z,6.80
2018-03-15T22:31:57.437Z,6.90
2018-03-15T22:34:25.134Z,6.80
2018-03-15T22:36:52.807Z,6.80
2018-03-15T22:39:20.432Z,6.80
2018-03-15T22:41:48.088Z,6.90
2018-03-15T22:44:15.686Z,6.90
2018-03-15T22:46:43.656Z,7.00
2018-03-15T22:49:11.456Z,7.00
2018-03-15T22:51:39.124Z,7.10
2018-03-15T22:54:06.822Z,7.10
2018-03-15T22:56:34.548Z,7.20
2018-03-15T22:59:03.020Z,7.30
2018-03-15T23:01:30.658Z,7.30
2018-03-15T23:03:58.313Z,7.30
2018-03-15T23:06:26.195Z,7.30
2018-03-15T23:08:54.340Z,7.30
2018-03-15T23:11:22.758Z,7.40
2018-03-15T23:13:50.399Z,7.30
2018-03-15T23:16:18.073Z,7.30
2018-03-15T23:18:46.466Z,7.30
2018-03-15T23:21:14.090Z,7.30
2018-03-15T23:23:41.714Z,7.30
2018-03-15T23:26:09.354Z,7.30
2018-03-15T23:28:37.869Z,7.30
2018-03-15T23:31:05.561Z,7.30
2018-03-15T23:33:33.192Z,7.30
2018-03-15T23:36:00.878Z,7.40
2018-03-15T23:38:28.537Z,7.40
2018-03-15T23:40:56.195Z,7.50
2018-03-15T23:43:24.080Z,7.50
2018-03-15T23:45:51.683Z,7.60
2018-03-15T23:48:19.295Z,7.70
2018-03-15T23:50:46.929Z,7.70
2018-03-15T23:53:15.408Z,7.70
2018-03-15T23:55:43.053Z,7.80
2018-03-15T23:58:10.784Z,7.80
